Time;durP1;ratioP1;P1;durP2;ratioP2;P2;SDS_P1;SDS_P2;PMS_P1;PMS_P2;Temp;Humidity;BMP_temperature;BMP_pressure;BME280_temperature;BME280_humidity;BME280_pressure;Samples;Min_cycle;Max_cycle;Signal;HPM_P1;HPM_P2
2021/07/06 00:02:13;;;;;;;5.82;3.08;;;18.60;99.90;;;;;;4979978;28;20049;-73
2021/07/06 00:04:41;;;;;;;6.38;3.40;;;18.50;99.90;;;;;;4996751;28;20034;-74
2021/07/06 00:07:06;;;;;;;5.90;3.00;;;18.50;99.90;;;;;;4976560;28;20037;-73
2021/07/06 00:09:32;;;;;;;6.78;3.10;;;18.50;99.90;;;;;;4995634;28;20620;-73
2021/07/06 00:12:00;;;;;;;6.10;3.10;;;18.50;99.90;;;;;;4992035;28;20452;-73
2021/07/06 00:14:31;;;;;;;8.43;3.28;;;18.50;99.90;;;;;;4995264;28;20056;-73
2021/07/06 00:16:56;;;;;;;7.03;3.03;;;18.50;99.90;;;;;;4996249;28;20030;-73
2021/07/06 00:19:22;;;;;;;6.15;2.97;;;18.50;99.90;;;;;;4995595;28;20033;-73
2021/07/06 00:21:47;;;;;;;5.57;3.00;;;18.50;99.90;;;;;;4979497;28;20469;-74
2021/07/06 00:24:13;;;;;;;6.65;3.22;;;18.40;99.90;;;;;;4995694;28;20037;-73
2021/07/06 00:26:43;;;;;;;6.15;3.05;;;18.40;99.90;;;;;;4995233;28;20022;-73
2021/07/06 00:29:09;;;;;;;5.60;2.90;;;18.40;99.90;;;;;;4995030;28;20031;-73
2021/07/06 00:31:34;;;;;;;5.28;2.97;;;18.40;99.90;;;;;;4981895;28;20034;-73
2021/07/06 00:34:03;;;;;;;7.35;3.15;;;18.30;99.90;;;;;;4994964;28;20049;-73
2021/07/06 00:36:31;;;;;;;7.60;3.50;;;18.30;99.90;;;;;;4994637;28;20030;-73
2021/07/06 00:38:56;;;;;;;5.00;3.20;;;18.30;99.90;;;;;;4995231;28;20475;-73
2021/07/06 00:41:24;;;;;;;6.15;3.03;;;18.20;99.90;;;;;;4995003;28;20041;-73
2021/07/06 00:43:52;;;;;;;5.30;3.25;;;18.20;99.90;;;;;;4975944;28;20040;-73
2021/07/06 00:46:20;;;;;;;5.82;3.13;;;18.20;99.90;;;;;;4979806;28;20344;-73
2021/07/06 00:48:50;;;;;;;6.80;3.00;;;18.20;99.90;;;;;;4993015;28;20045;-73
2021/07/06 00:51:16;;;;;;;8.00;3.35;;;18.10;99.90;;;;;;4976673;28;20040;-74
2021/07/06 00:53:41;;;;;;;5.55;3.00;;;18.10;99.90;;;;;;4996414;28;20366;-73
2021/07/06 00:56:12;;;;;;;7.28;3.30;;;18.10;99.90;;;;;;4944661;28;1146413;-73
2021/07/06 00:58:37;;;;;;;7.97;3.30;;;18.10;99.90;;;;;;4980868;28;20053;-73
2021/07/06 01:01:04;;;;;;;6.93;3.05;;;18.00;99.90;;;;;;4982207;28;20459;-74
2021/07/06 01:03:33;;;;;;;6.00;3.00;;;18.00;99.90;;;;;;4994336;28;20129;-73
2021/07/06 01:06:01;;;;;;;7.30;3.63;;;17.90;99.90;;;;;;4980913;28;20088;-74
2021/07/06 01:08:27;;;;;;;5.93;3.30;;;17.90;99.90;;;;;;4996184;28;20053;-73
2021/07/06 01:10:53;;;;;;;5.72;3.13;;;17.90;99.90;;;;;;4961971;28;20054;-74
2021/07/06 01:13:21;;;;;;;6.30;3.05;;;17.80;99.90;;;;;;4978564;28;20121;-73
2021/07/06 01:15:47;;;;;;;6.22;3.20;;;17.80;99.90;;;;;;4980525;28;20062;-73
2021/07/06 01:18:16;;;;;;;7.00;3.40;;;17.80;99.90;;;;;;4997472;28;20125;-73
2021/07/06 01:20:53;;;;;;;7.53;3.20;;;17.80;99.90;;;;;;4980131;28;20092;-73
2021/07/06 01:23:22;;;;;;;5.68;3.50;;;17.70;99.90;;;;;;4995399;28;20045;-73
2021/07/06 01:25:51;;;;;;;9.13;3.22;;;17.70;99.90;;;;;;4983465;28;20467;-73
2021/07/06 01:28:17;;;;;;;7.70;3.20;;;17.70;99.90;;;;;;4977627;28;20134;-73
2021/07/06 01:30:43;;;;;;;10.38;3.22;;;17.60;99.90;;;;;;4980515;28;20120;-73
2021/07/06 01:33:15;;;;;;;6.22;3.30;;;17.60;99.90;;;;;;4975039;28;20531;-73
2021/07/06 01:35:40;;;;;;;;;;;17.50;99.90;;;;;;4981073;28;20038;-73
2021/07/06 01:38:06;;;;;;;5.72;3.20;;;17.50;99.90;;;;;;4980463;28;19936;-73
2021/07/06 01:40:32;;;;;;;7.60;3.35;;;17.50;99.90;;;;;;4995683;28;20465;-73
2021/07/06 01:43:00;;;;;;;6.65;3.20;;;17.40;99.90;;;;;;4995687;28;20508;-73
2021/07/06 01:45:27;;;;;;;5.35;3.50;;;17.40;99.90;;;;;;4979819;28;20045;-73
2021/07/06 01:47:56;;;;;;;6.70;3.40;;;17.40;99.90;;;;;;4980211;28;20144;-73
2021/07/06 01:50:36;;;;;;;6.97;3.70;;;17.30;99.90;;;;;;4968828;28;20030;-73
2021/07/06 01:53:04;;;;;;;7.78;3.47;;;17.30;99.90;;;;;;4978918;28;20030;-73
2021/07/06 01:55:33;;;;;;;7.53;3.83;;;17.30;99.90;;;;;;4976753;28;20360;-73
2021/07/06 01:58:00;;;;;;;7.80;3.38;;;17.30;99.90;;;;;;4975595;28;20165;-73
2021/07/06 02:00:27;;;;;;;6.72;3.40;;;17.30;99.90;;;;;;4995268;28;20097;-73
2021/07/06 02:02:57;;;;;;;5.63;3.28;;;17.30;99.90;;;;;;4959736;28;20058;-73
2021/07/06 02:05:30;;;;;;;6.00;3.28;;;17.30;99.90;;;;;;4975758;28;20135;-73
2021/07/06 02:07:56;;;;;;;7.40;3.30;;;17.20;99.90;;;;;;4994217;28;20032;-74
2021/07/06 02:10:22;;;;;;;7.13;3.60;;;17.20;99.90;;;;;;4966505;28;20034;-73
2021/07/06 02:12:47;;;;;;;7.13;3.45;;;17.20;99.90;;;;;;4995007;28;20215;-73
2021/07/06 02:15:15;;;;;;;6.93;3.90;;;17.20;99.90;;;;;;4965966;28;20985;-74
2021/07/06 02:17:44;;;;;;;7.57;3.90;;;17.20;99.90;;;;;;4978960;28;20058;-73
2021/07/06 02:20:15;;;;;;;8.35;3.40;;;17.10;99.90;;;;;;4982878;28;20126;-73
2021/07/06 02:22:44;;;;;;;7.70;3.70;;;17.10;99.90;;;;;;4995884;28;20520;-73
2021/07/06 02:25:10;;;;;;;6.40;3.85;;;17.10;99.90;;;;;;4997458;28;20073;-74
2021/07/06 02:27:36;;;;;;;6.38;3.90;;;17.10;99.90;;;;;;4980539;28;20025;-73
2021/07/06 02:30:03;;;;;;;5.78;3.70;;;17.00;99.90;;;;;;4998435;28;20052;-73
2021/07/06 02:32:31;;;;;;;7.25;3.80;;;17.00;99.90;;;;;;4999502;28;20033;-73
2021/07/06 02:34:59;;;;;;;5.40;3.60;;;17.00;99.90;;;;;;4997736;28;20045;-73
2021/07/06 02:37:25;;;;;;;7.85;3.53;;;17.00;99.90;;;;;;4979109;28;20038;-73
2021/07/06 02:39:53;;;;;;;5.97;3.20;;;17.00;99.90;;;;;;4998873;28;20183;-73
2021/07/06 02:42:18;;;;;;;6.68;3.58;;;17.00;99.90;;;;;;4997976;28;20665;-73
2021/07/06 02:44:44;;;;;;;5.75;3.53;;;17.00;99.90;;;;;;4982262;28;20164;-73
2021/07/06 02:47:12;;;;;;;7.03;3.65;;;16.90;99.90;;;;;;4999156;28;20029;-73
2021/07/06 02:49:42;;;;;;;7.38;4.15;;;16.90;99.90;;;;;;4998350;28;20049;-73
2021/07/06 02:52:10;;;;;;;6.82;3.92;;;16.90;99.90;;;;;;4998907;28;20026;-73
2021/07/06 02:54:40;;;;;;;6.97;3.45;;;16.80;99.90;;;;;;4998153;28;20065;-73
2021/07/06 02:57:10;;;;;;;5.47;3.40;;;16.80;99.90;;;;;;4997285;28;20115;-73
2021/07/06 02:59:38;;;;;;;6.68;3.58;;;16.80;99.90;;;;;;4998083;28;20025;-73
2021/07/06 03:02:06;;;;;;;6.88;3.53;;;16.70;99.90;;;;;;4998532;28;20077;-73
2021/07/06 03:04:32;;;;;;;7.03;3.53;;;16.70;99.90;;;;;;4978334;28;20344;-73
2021/07/06 03:06:57;;;;;;;6.97;3.78;;;16.70;99.90;;;;;;4997148;28;20040;-74
2021/07/06 03:09:23;;;;;;;7.53;3.63;;;16.70;99.90;;;;;;4996900;28;20502;-73
2021/07/06 03:11:48;;;;;;;9.18;4.20;;;16.60;99.90;;;;;;4985291;28;20168;-74
2021/07/06 03:14:17;;;;;;;8.65;3.72;;;16.60;99.90;;;;;;4997485;28;20064;-73
2021/07/06 03:16:45;;;;;;;6.60;3.40;;;16.60;99.90;;;;;;4979365;28;20072;-73
2021/07/06 03:19:13;;;;;;;7.13;3.80;;;16.60;99.90;;;;;;4997762;28;20136;-73
2021/07/06 03:21:39;;;;;;;7.97;3.70;;;16.60;99.90;;;;;;4997506;28;20091;-73
2021/07/06 03:24:04;;;;;;;6.75;3.78;;;16.60;99.90;;;;;;4977409;28;20080;-73
2021/07/06 03:26:32;;;;;;;5.72;3.55;;;16.60;99.90;;;;;;4997457;28;20096;-73
2021/07/06 03:28:58;;;;;;;5.57;3.67;;;16.60;99.90;;;;;;4998180;28;20472;-73
2021/07/06 03:31:25;;;;;;;8.75;3.80;;;16.60;99.90;;;;;;4980835;28;20030;-73
2021/07/06 03:33:52;;;;;;;7.05;3.90;;;16.60;99.90;;;;;;4997664;28;20109;-73
2021/07/06 03:36:18;;;;;;;6.47;3.90;;;16.60;99.90;;;;;;4996957;28;20083;-73
2021/07/06 03:38:44;;;;;;;9.13;4.20;;;16.60;99.90;;;;;;4995184;28;20987;-73
2021/07/06 03:41:09;;;;;;;6.72;4.07;;;16.60;99.90;;;;;;4996912;28;20554;-73
2021/07/06 03:43:35;;;;;;;7.03;3.92;;;16.60;99.90;;;;;;4997213;28;20049;-73
2021/07/06 03:46:03;;;;;;;8.68;3.80;;;16.60;99.90;;;;;;4996703;28;20050;-73
2021/07/06 03:48:29;;;;;;;7.28;3.75;;;16.50;99.90;;;;;;4997321;28;20076;-74
2021/07/06 03:50:57;;;;;;;7.05;3.40;;;16.50;99.90;;;;;;4977674;28;20132;-73
2021/07/06 03:53:27;;;;;;;6.55;3.67;;;16.50;99.90;;;;;;4997653;28;20049;-73
2021/07/06 03:55:52;;;;;;;6.07;3.60;;;16.50;99.90;;;;;;4997146;28;20813;-74
2021/07/06 03:58:18;;;;;;;5.72;3.95;;;16.50;99.90;;;;;;4996367;28;20045;-73
2021/07/06 04:00:44;;;;;;;8.88;3.80;;;16.50;99.90;;;;;;4981714;28;21798;-73
2021/07/06 04:03:09;;;;;;;5.22;3.45;;;16.50;99.90;;;;;;4997581;28;20038;-73
2021/07/06 04:05:35;;;;;;;6.55;3.85;;;16.50;99.90;;;;;;4995681;28;20176;-73
2021/07/06 04:08:06;;;;;;;6.28;3.92;;;16.50;99.90;;;;;;4981150;28;20108;-73
2021/07/06 04:10:34;;;;;;;7.95;3.65;;;16.50;99.90;;;;;;4996964;28;20058;-73
2021/07/06 04:13:06;;;;;;;9.00;3.75;;;16.50;99.90;;;;;;4996327;28;20030;-73
2021/07/06 04:15:32;;;;;;;6.80;3.83;;;16.50;99.90;;;;;;4996176;28;20057;-73
2021/07/06 04:17:57;;;;;;;7.35;3.80;;;16.50;99.90;;;;;;4997315;28;20037;-74
2021/07/06 04:20:23;;;;;;;5.35;3.58;;;16.40;99.90;;;;;;4997124;28;20029;-73
2021/07/06 04:22:49;;;;;;;5.70;3.72;;;16.40;99.90;;;;;;4984960;28;20117;-73
2021/07/06 04:25:17;;;;;;;5.47;3.38;;;16.40;99.90;;;;;;4995616;28;20025;-73
2021/07/06 04:27:47;;;;;;;6.35;3.53;;;16.40;99.90;;;;;;4981062;28;22016;-73
2021/07/06 04:30:13;;;;;;;6.28;3.72;;;16.40;99.90;;;;;;4995673;28;20040;-73
2021/07/06 04:32:41;;;;;;;6.43;3.83;;;16.40;99.90;;;;;;4997282;28;20829;-73
2021/07/06 04:35:07;;;;;;;6.13;3.60;;;16.50;99.90;;;;;;4995982;28;20574;-73
2021/07/06 04:37:35;;;;;;;7.55;3.72;;;16.50;99.90;;;;;;4997256;28;20482;-73
2021/07/06 04:40:06;;;;;;;6.78;3.65;;;16.50;99.90;;;;;;4961428;28;20037;-73
2021/07/06 04:42:34;;;;;;;7.65;3.60;;;16.50;99.90;;;;;;4981056;28;20037;-73
2021/07/06 04:45:02;;;;;;;5.30;3.90;;;16.50;99.90;;;;;;4995795;28;20076;-74
2021/07/06 04:47:28;;;;;;;8.25;4.43;;;16.50;99.90;;;;;;4983506;28;20774;-73
2021/07/06 04:49:58;;;;;;;8.45;4.28;;;16.60;99.90;;;;;;4996961;28;20109;-74
2021/07/06 04:52:24;;;;;;;6.70;3.88;;;16.60;99.90;;;;;;4979791;28;20767;-74
2021/07/06 04:54:49;;;;;;;7.20;3.95;;;16.60;99.90;;;;;;4980030;28;20038;-73
2021/07/06 04:57:15;;;;;;;6.38;3.80;;;16.60;99.90;;;;;;4995216;28;20550;-73
2021/07/06 04:59:40;;;;;;;8.45;4.07;;;16.60;99.90;;;;;;4984024;28;20034;-73
2021/07/06 05:02:06;;;;;;;8.50;4.28;;;16.70;99.90;;;;;;4997513;28;20033;-74
2021/07/06 05:04:33;;;;;;;10.32;4.50;;;16.80;99.90;;;;;;4979953;28;20033;-73
2021/07/06 05:07:02;;;;;;;7.10;4.68;;;16.80;99.90;;;;;;4976752;28;20041;-73
2021/07/06 05:09:28;;;;;;;6.28;4.60;;;16.90;99.90;;;;;;4963276;28;20109;-73
2021/07/06 05:11:53;;;;;;;6.15;3.58;;;17.00;99.90;;;;;;4975824;28;20452;-73
2021/07/06 05:14:23;;;;;;;6.05;3.67;;;17.00;99.90;;;;;;4996034;28;20033;-73
2021/07/06 05:16:49;;;;;;;8.75;4.32;;;17.10;99.90;;;;;;4996099;28;20025;-73
2021/07/06 05:19:19;;;;;;;7.50;4.20;;;17.20;99.90;;;;;;4980625;28;20044;-74
2021/07/06 05:21:45;;;;;;;9.50;4.70;;;17.30;99.90;;;;;;4979204;28;20048;-73
2021/07/06 05:24:11;;;;;;;8.30;4.25;;;17.40;99.90;;;;;;4996348;28;20029;-73
2021/07/06 05:26:37;;;;;;;7.28;4.05;;;17.40;99.90;;;;;;4983472;28;20056;-73
2021/07/06 05:29:05;;;;;;;5.80;3.97;;;17.50;99.90;;;;;;4995449;28;20034;-73
2021/07/06 05:31:33;;;;;;;6.53;3.88;;;17.70;99.90;;;;;;4996946;28;20359;-73
2021/07/06 05:33:59;;;;;;;7.30;4.35;;;17.70;99.90;;;;;;4995900;28;20027;-74
2021/07/06 05:36:25;;;;;;;6.90;4.10;;;17.80;99.90;;;;;;4996483;28;20083;-73
2021/07/06 05:38:53;;;;;;;5.72;4.18;;;17.90;99.90;;;;;;4978331;28;20034;-74
2021/07/06 05:41:19;;;;;;;7.03;4.60;;;18.00;99.90;;;;;;4995997;28;20511;-74
2021/07/06 05:43:47;;;;;;;6.22;4.07;;;18.00;99.90;;;;;;4992255;28;20056;-74
2021/07/06 05:46:12;;;;;;;6.53;4.25;;;18.10;99.90;;;;;;4963104;28;20092;-74
2021/07/06 05:48:41;;;;;;;8.23;4.50;;;18.20;99.90;;;;;;4996551;28;20030;-73
2021/07/06 05:51:06;;;;;;;6.72;4.50;;;18.30;99.90;;;;;;4967508;28;20475;-73
2021/07/06 05:53:32;;;;;;;7.45;4.55;;;18.30;99.90;;;;;;4995285;28;20025;-74
2021/07/06 05:56:00;;;;;;;8.20;4.85;;;18.50;99.90;;;;;;4976091;28;20077;-73
2021/07/06 05:58:28;;;;;;;7.57;4.55;;;18.50;99.90;;;;;;4979551;28;20026;-74
2021/07/06 06:00:56;;;;;;;9.85;4.40;;;18.60;99.90;;;;;;4999299;28;20038;-73
2021/07/06 06:03:24;;;;;;;8.30;4.53;;;18.60;99.90;;;;;;4999405;28;20062;-73
2021/07/06 06:05:54;;;;;;;6.57;3.92;;;18.70;99.90;;;;;;4998654;28;20038;-73
2021/07/06 06:08:20;;;;;;;6.78;4.13;;;18.70;99.90;;;;;;4999211;28;20036;-74
2021/07/06 06:10:50;;;;;;;6.03;4.13;;;18.80;99.90;;;;;;4986318;28;20026;-73
2021/07/06 06:13:16;;;;;;;6.22;4.20;;;18.80;99.90;;;;;;4986843;28;20045;-73
2021/07/06 06:15:41;;;;;;;7.40;4.10;;;18.90;99.90;;;;;;4999692;28;20070;-73
2021/07/06 06:18:07;;;;;;;6.32;4.28;;;18.90;99.90;;;;;;4979190;28;20040;-73
2021/07/06 06:20:37;;;;;;;6.40;3.80;;;19.00;99.90;;;;;;4999671;28;20030;-73
2021/07/06 06:23:04;;;;;;;6.05;3.72;;;19.00;99.90;;;;;;4999210;28;20051;-73
2021/07/06 06:25:32;;;;;;;6.90;3.95;;;19.10;99.90;;;;;;4999071;28;20032;-73
2021/07/06 06:27:59;;;;;;;5.75;3.30;;;19.10;99.90;;;;;;4981993;28;20078;-73
2021/07/06 06:30:25;;;;;;;7.68;3.80;;;19.10;99.90;;;;;;4998653;28;20032;-73
2021/07/06 06:32:55;;;;;;;7.07;3.88;;;19.10;99.90;;;;;;4978494;28;20029;-73
2021/07/06 06:35:23;;;;;;;6.32;3.88;;;19.10;99.90;;;;;;4998190;28;20475;-73
2021/07/06 06:37:49;;;;;;;6.22;3.35;;;19.10;99.90;;;;;;4998317;28;20073;-73
2021/07/06 06:40:17;;;;;;;7.50;3.75;;;19.10;99.90;;;;;;4954049;28;20528;-73
2021/07/06 06:42:43;;;;;;;7.05;3.90;;;19.20;99.90;;;;;;4983556;28;20026;-73
2021/07/06 06:45:10;;;;;;;6.78;3.90;;;19.20;99.90;;;;;;4981255;28;20040;-73
2021/07/06 06:47:38;;;;;;;16.25;8.07;;;19.20;99.90;;;;;;4998445;28;20026;-73
2021/07/06 06:50:05;;;;;;;11.18;6.13;;;19.20;99.90;;;;;;4982108;28;20464;-73
2021/07/06 06:52:33;;;;;;;6.80;3.97;;;19.20;99.90;;;;;;4998163;28;20471;-73
2021/07/06 06:54:59;;;;;;;12.30;5.20;;;19.20;99.90;;;;;;4998306;28;20137;-73
2021/07/06 06:57:27;;;;;;;7.75;3.38;;;19.20;99.90;;;;;;4998120;28;20475;-73
2021/07/06 06:59:53;;;;;;;5.95;3.13;;;19.10;99.90;;;;;;4979386;28;20049;-73
2021/07/06 07:02:28;;;;;;;22.63;4.78;;;19.10;99.90;;;;;;4997025;28;20037;-74
2021/07/06 07:04:53;;;;;;;13.00;5.30;;;18.80;99.90;;;;;;4997711;28;21953;-76
2021/07/06 07:07:21;;;;;;;11.93;5.43;;;18.80;99.90;;;;;;4978639;28;20152;-73
2021/07/06 07:09:46;;;;;;;11.77;5.15;;;18.70;99.90;;;;;;4978064;28;20034;-73
2021/07/06 07:12:15;;;;;;;10.27;4.93;;;18.70;99.90;;;;;;4978911;28;20518;-73
2021/07/06 07:14:41;;;;;;;13.77;6.15;;;18.70;99.90;;;;;;4978548;28;20022;-73
2021/07/06 07:17:09;;;;;;;12.57;5.40;;;18.70;99.90;;;;;;4981842;28;20064;-73
2021/07/06 07:19:35;;;;;;;11.65;5.20;;;18.70;99.90;;;;;;4986225;28;20030;-73
2021/07/06 07:22:04;;;;;;;9.07;4.75;;;18.70;99.90;;;;;;4998788;28;20030;-73
2021/07/06 07:24:29;;;;;;;8.88;4.78;;;18.80;99.90;;;;;;4997940;28;20357;-73
2021/07/06 07:26:55;;;;;;;9.10;4.63;;;18.80;99.90;;;;;;4997405;28;20037;-73
2021/07/06 07:29:21;;;;;;;9.45;4.90;;;18.80;99.90;;;;;;4979681;28;20026;-73
2021/07/06 07:31:47;;;;;;;8.38;4.47;;;18.90;99.90;;;;;;4998494;28;20045;-73
2021/07/06 07:34:15;;;;;;;9.20;4.50;;;19.00;99.90;;;;;;4997829;28;20042;-73
2021/07/06 07:36:41;;;;;;;11.82;4.72;;;19.10;99.90;;;;;;4998070;28;20038;-76
2021/07/06 07:39:08;;;;;;;10.00;4.55;;;19.20;99.90;;;;;;4995661;28;20606;-73
2021/07/06 07:41:34;;;;;;;7.90;4.53;;;19.30;99.90;;;;;;4984464;28;20048;-73
2021/07/06 07:44:02;;;;;;;8.95;4.68;;;19.40;99.90;;;;;;4980973;28;20515;-73
2021/07/06 07:46:29;;;;;;;7.80;4.15;;;19.40;99.90;;;;;;4977806;28;20033;-73
2021/07/06 07:48:55;;;;;;;8.15;4.20;;;19.50;99.90;;;;;;4996387;28;20057;-73
2021/07/06 07:51:23;;;;;;;7.07;4.82;;;19.60;99.90;;;;;;4996860;28;20109;-73
2021/07/06 07:53:49;;;;;;;10.50;4.60;;;19.80;99.90;;;;;;4949485;28;20018;-73
2021/07/06 07:56:14;;;;;;;7.13;4.20;;;19.90;99.90;;;;;;4977551;28;20509;-73
2021/07/06 07:58:40;;;;;;;6.82;3.88;;;19.90;99.90;;;;;;4962434;28;20030;-73
2021/07/06 08:01:08;;;;;;;7.88;4.03;;;19.90;99.90;;;;;;4956555;28;20049;-73
2021/07/06 08:03:34;;;;;;;6.88;3.70;;;19.80;99.90;;;;;;4979313;28;20049;-73
2021/07/06 08:06:00;;;;;;;4.80;3.28;;;19.80;99.90;;;;;;4978722;28;20329;-73
2021/07/06 08:08:27;;;;;;;7.15;3.95;;;19.90;99.90;;;;;;4978164;28;20740;-73
2021/07/06 08:10:54;;;;;;;6.05;3.40;;;19.90;99.90;;;;;;4956377;28;20041;-73
2021/07/06 08:13:24;;;;;;;5.68;3.05;;;19.80;99.90;;;;;;4973097;28;20034;-74
2021/07/06 08:15:52;;;;;;;5.22;3.20;;;19.60;99.90;;;;;;4977836;28;20071;-74
2021/07/06 08:18:21;;;;;;;7.68;3.88;;;19.50;99.90;;;;;;4958435;28;20038;-73
2021/07/06 08:20:49;;;;;;;6.47;3.60;;;19.40;99.90;;;;;;4977163;28;20109;-74
2021/07/06 08:23:15;;;;;;;5.82;3.67;;;19.30;99.90;;;;;;4973269;28;20073;-73
2021/07/06 08:25:43;;;;;;;6.88;3.40;;;19.20;99.90;;;;;;4976769;28;20129;-74
2021/07/06 08:28:09;;;;;;;7.57;3.47;;;19.20;99.90;;;;;;4977053;28;20443;-74
2021/07/06 08:30:39;;;;;;;5.07;3.35;;;19.10;99.90;;;;;;4977908;28;20027;-74
2021/07/06 08:33:09;;;;;;;5.90;3.65;;;18.90;99.90;;;;;;4971882;28;20409;-72
2021/07/06 08:35:35;;;;;;;10.02;4.78;;;18.80;99.90;;;;;;4972388;28;20062;-72
2021/07/06 08:38:00;;;;;;;7.85;4.70;;;18.80;99.90;;;;;;4971751;28;20031;-73
2021/07/06 08:40:28;;;;;;;9.55;4.65;;;18.70;99.90;;;;;;4975488;28;20034;-72
2021/07/06 08:42:59;;;;;;;9.70;4.95;;;18.60;99.90;;;;;;4942676;28;20119;-69
2021/07/06 08:45:26;;;;;;;8.77;5.72;;;18.50;99.90;;;;;;4971355;28;20668;-72
2021/07/06 08:47:55;;;;;;;9.65;5.65;;;18.50;99.90;;;;;;4975855;28;20046;-73
2021/07/06 08:50:23;;;;;;;9.70;5.80;;;18.60;99.90;;;;;;4960307;28;20620;-72
2021/07/06 08:52:51;;;;;;;8.45;4.60;;;18.60;99.90;;;;;;4971329;28;20044;-73
2021/07/06 08:55:20;;;;;;;7.70;4.30;;;18.70;99.90;;;;;;4971519;28;20527;-73
2021/07/06 08:57:45;;;;;;;9.38;5.07;;;18.70;99.90;;;;;;4977901;28;20042;-73
2021/07/06 09:00:15;;;;;;;6.78;4.60;;;18.90;99.90;;;;;;4971383;28;20027;-73
2021/07/06 09:03:03;;;;;;;9.23;4.57;;;18.90;99.90;;;;;;4978193;28;20528;-74
2021/07/06 09:05:34;;;;;;;9.73;4.50;;;19.00;99.90;;;;;;4949662;28;20038;-72
2021/07/06 09:08:00;;;;;;;10.88;8.30;;;19.00;99.90;;;;;;4975175;28;20022;-72
2021/07/06 09:10:27;;;;;;;9.00;6.30;;;19.00;99.90;;;;;;4976145;28;20026;-73
2021/07/06 09:12:53;;;;;;;9.20;5.00;;;19.10;99.90;;;;;;4978309;28;20533;-72
2021/07/06 09:15:27;;;;;;;9.23;5.72;;;19.10;99.90;;;;;;4975988;28;20630;-73
2021/07/06 09:18:16;;;;;;;13.20;7.32;;;19.00;99.90;;;;;;4975852;28;20045;-73
2021/07/06 09:20:46;;;;;;;9.45;7.55;;;19.00;99.90;;;;;;4972600;28;20530;-73
2021/07/06 09:23:25;;;;;;;12.80;9.18;;;18.90;99.90;;;;;;4976273;28;20045;-73
2021/07/06 09:26:03;;;;;;;11.02;9.80;;;18.90;99.90;;;;;;4977272;28;20058;-73
2021/07/06 09:28:34;;;;;;;14.60;11.18;;;18.90;99.90;;;;;;4971730;28;20115;-73
2021/07/06 09:31:20;;;;;;;14.30;9.60;;;18.80;99.90;;;;;;4955514;28;20057;-73
2021/07/06 09:33:54;;;;;;;11.93;9.32;;;18.80;99.90;;;;;;4972455;28;20027;-72
2021/07/06 09:36:45;;;;;;;15.57;10.88;;;18.80;99.90;;;;;;4979128;28;20046;-73
2021/07/06 09:39:15;;;;;;;15.02;10.38;;;18.80;99.90;;;;;;4979510;28;20037;-74
2021/07/06 09:41:45;;;;;;;14.35;11.00;;;18.70;99.90;;;;;;4978278;28;20400;-73
2021/07/06 09:44:14;;;;;;;14.75;11.60;;;18.60;99.90;;;;;;4980868;28;20145;-73
2021/07/06 09:46:52;;;;;;;11.95;10.65;;;18.60;99.90;;;;;;4979349;28;20104;-73
2021/07/06 09:49:21;;;;;;;13.60;11.20;;;18.50;99.90;;;;;;4980560;28;20026;-73
2021/07/06 09:51:49;;;;;;;14.00;11.07;;;18.50;99.90;;;;;;4975284;28;20026;-73
2021/07/06 09:54:41;;;;;;;15.35;11.10;;;18.50;99.90;;;;;;4978891;28;20034;-74
2021/07/06 09:57:28;;;;;;;14.93;11.90;;;18.60;99.90;;;;;;4992008;28;21199;-73
2021/07/06 09:59:55;;;;;;;13.95;12.50;;;18.60;99.90;;;;;;4982733;28;20030;-72
2021/07/06 10:02:21;;;;;;;14.32;11.93;;;18.60;99.90;;;;;;4998126;28;20418;-73
2021/07/06 10:04:53;;;;;;;14.95;12.35;;;18.60;99.90;;;;;;4998967;28;20029;-72
2021/07/06 10:07:20;;;;;;;;;;;18.50;99.90;;;;;;4980934;28;20047;-72
2021/07/06 10:09:46;;;;;;;10.93;8.40;;;18.50;99.90;;;;;;4983224;28;20127;-72
2021/07/06 10:12:16;;;;;;;12.15;10.30;;;18.60;99.90;;;;;;4998436;28;20507;-71
2021/07/06 10:14:42;;;;;;;13.02;9.57;;;18.60;99.90;;;;;;4969710;28;20038;-72
2021/07/06 10:17:13;;;;;;;10.02;8.00;;;18.70;99.90;;;;;;4970996;28;20033;-72
2021/07/06 10:19:42;;;;;;;10.75;8.55;;;18.80;99.90;;;;;;4967043;28;20609;-73
2021/07/06 10:22:08;;;;;;;9.63;7.90;;;18.80;99.90;;;;;;4999278;28;20029;-72
2021/07/06 10:24:53;;;;;;;9.35;7.95;;;18.90;99.90;;;;;;4998556;28;20870;-72
2021/07/06 10:27:28;;;;;;;11.20;8.40;;;18.80;99.90;;;;;;4969618;28;20030;-72
2021/07/06 10:30:16;;;;;;;9.52;8.10;;;18.90;99.90;;;;;;4981479;28;20041;-71
2021/07/06 10:32:49;;;;;;;11.10;7.65;;;18.80;99.90;;;;;;4980755;28;20025;-72
2021/07/06 10:35:15;;;;;;;8.88;6.63;;;18.90;99.90;;;;;;4998518;28;20048;-72
2021/07/06 10:37:41;;;;;;;8.15;6.63;;;18.90;99.90;;;;;;4980931;28;20033;-71
2021/07/06 10:40:24;;;;;;;10.40;8.60;;;18.70;99.90;;;;;;4970066;28;20046;-73
2021/07/06 10:42:53;;;;;;;11.85;6.68;;;18.80;99.90;;;;;;4998180;28;20034;-72
2021/07/06 10:45:32;;;;;;;7.50;5.45;;;18.80;99.90;;;;;;4978339;28;20080;-72
2021/07/06 10:47:58;;;;;;;8.93;5.78;;;18.80;99.90;;;;;;4997646;28;20034;-72
2021/07/06 10:50:29;;;;;;;8.52;4.88;;;18.90;99.90;;;;;;4997960;28;20041;-73
2021/07/06 10:53:24;;;;;;;7.28;4.03;;;19.00;99.90;;;;;;4997708;28;20088;-73
2021/07/06 10:56:10;;;;;;;6.80;3.95;;;19.00;99.90;;;;;;4983390;28;20042;-73
2021/07/06 10:58:55;;;;;;;7.20;4.15;;;19.00;99.90;;;;;;4998339;28;20120;-73
2021/07/06 11:01:45;;;;;;;6.20;3.60;;;18.90;99.90;;;;;;4998127;28;20074;-73
2021/07/06 11:04:33;;;;;;;6.85;3.75;;;18.90;99.90;;;;;;4999197;28;20099;-73
2021/07/06 11:07:02;;;;;;;6.93;3.55;;;19.00;99.90;;;;;;4997669;28;20038;-73
2021/07/06 11:09:31;;;;;;;6.25;3.60;;;19.00;99.90;;;;;;4965385;28;20038;-73
2021/07/06 11:12:24;;;;;;;7.43;3.20;;;19.00;99.90;;;;;;4997732;28;20460;-72
2021/07/06 11:14:57;;;;;;;6.43;3.75;;;19.00;99.90;;;;;;4979268;28;20045;-73
2021/07/06 11:17:32;;;;;;;5.25;3.30;;;18.90;99.90;;;;;;4994505;28;20536;-71
2021/07/06 11:19:59;;;;;;;13.15;8.35;;;18.90;99.90;;;;;;4997847;28;20092;-71
2021/07/06 11:22:44;;;;;;;4.55;3.00;;;18.80;99.90;;;;;;4977961;28;20030;-73
2021/07/06 11:25:25;;;;;;;4.93;3.30;;;18.60;99.90;;;;;;4978553;28;20459;-72
2021/07/06 11:28:02;;;;;;;5.70;3.07;;;18.50;99.90;;;;;;4978476;28;20056;-73
2021/07/06 11:30:37;;;;;;;6.00;3.53;;;18.60;99.90;;;;;;4998209;28;20083;-72
2021/07/06 11:33:14;;;;;;;6.20;3.00;;;18.60;99.90;;;;;;4998157;28;20332;-72
2021/07/06 11:35:50;;;;;;;4.60;3.13;;;18.60;99.90;;;;;;4980791;28;20022;-72
2021/07/06 11:38:25;;;;;;;5.95;2.90;;;18.70;99.90;;;;;;4981925;28;20092;-72
2021/07/06 11:41:03;;;;;;;5.22;2.90;;;18.90;99.90;;;;;;4995895;28;20037;-72
2021/07/06 11:43:31;;;;;;;6.03;3.28;;;19.00;99.90;;;;;;4996954;28;20033;-72
2021/07/06 11:45:58;;;;;;;5.85;3.10;;;19.00;99.90;;;;;;4948594;28;20040;-72
2021/07/06 11:48:25;;;;;;;10.05;3.38;;;19.10;99.90;;;;;;4993619;28;20188;-72
2021/07/06 11:50:51;;;;;;;5.63;3.28;;;19.20;99.90;;;;;;4977880;28;20473;-72
2021/07/06 11:53:25;;;;;;;6.15;3.20;;;19.30;99.90;;;;;;4952277;28;20029;-73
2021/07/06 11:55:56;;;;;;;6.00;3.30;;;19.30;99.90;;;;;;4961373;28;20030;-71
2021/07/06 11:58:24;;;;;;;5.22;3.10;;;19.40;99.90;;;;;;4965058;28;20069;-72
2021/07/06 12:00:52;;;;;;;5.60;3.20;;;19.50;99.90;;;;;;4961683;28;20383;-72
2021/07/06 12:03:27;;;;;;;6.43;3.50;;;19.40;99.90;;;;;;4948500;28;20033;-72
2021/07/06 12:05:53;;;;;;;5.38;2.90;;;19.50;99.90;;;;;;4996526;28;20026;-72
2021/07/06 12:08:21;;;;;;;6.93;3.25;;;19.40;99.90;;;;;;4996805;28;20041;-72
2021/07/06 12:11:09;;;;;;;6.50;3.10;;;19.40;99.90;;;;;;4979394;28;20034;-72
2021/07/06 12:13:39;;;;;;;5.32;3.17;;;19.30;99.90;;;;;;4969955;28;20092;-73
2021/07/06 12:16:11;;;;;;;5.20;3.28;;;19.30;99.90;;;;;;4996464;28;20041;-72
2021/07/06 12:18:37;;;;;;;5.30;3.38;;;19.20;99.90;;;;;;4993151;28;20092;-72
2021/07/06 12:21:07;;;;;;;6.47;3.80;;;19.20;99.90;;;;;;4977756;28;20042;-73
2021/07/06 12:23:37;;;;;;;5.85;3.50;;;19.10;99.90;;;;;;4977187;28;20038;-73
2021/07/06 12:26:03;;;;;;;6.47;3.85;;;19.10;99.90;;;;;;4972208;28;20038;-72
2021/07/06 12:28:28;;;;;;;7.88;3.85;;;19.00;99.90;;;;;;4993331;28;20044;-73
2021/07/06 12:31:13;;;;;;;6.75;3.80;;;19.00;99.90;;;;;;4976713;28;20034;-72
2021/07/06 12:33:41;;;;;;;7.30;3.75;;;19.00;99.90;;;;;;4975727;28;20368;-72
2021/07/06 12:36:06;;;;;;;5.68;4.15;;;19.00;99.90;;;;;;4995265;28;20558;-72
2021/07/06 12:38:34;;;;;;;7.32;4.00;;;19.00;99.90;;;;;;4996575;28;20038;-72
2021/07/06 12:41:20;;;;;;;7.82;3.70;;;19.00;99.90;;;;;;4995343;28;20064;-72
2021/07/06 12:43:56;;;;;;;5.93;3.35;;;19.00;99.90;;;;;;4992732;28;20026;-72
2021/07/06 12:46:28;;;;;;;6.53;3.65;;;18.90;99.90;;;;;;4979750;28;20546;-73
2021/07/06 12:48:53;;;;;;;;;;;18.90;99.90;;;;;;4995507;28;21889;-73
2021/07/06 12:51:19;;;;;;;6.00;3.40;;;18.90;99.90;;;;;;4980929;28;19913;-73
2021/07/06 12:53:58;;;;;;;5.28;3.10;;;18.90;99.90;;;;;;4976957;28;20033;-73
2021/07/06 12:56:29;;;;;;;5.00;3.30;;;18.80;99.90;;;;;;4995454;28;20072;-74